Time;durP1;ratioP1;P1;durP2;ratioP2;P2;SDS_P1;SDS_P2;PMS_P1;PMS_P2;Temp;Humidity;BMP_temperature;BMP_pressure;BME280_temperature;BME280_humidity;BME280_pressure;Samples;Min_cycle;Max_cycle;Signal;HPM_P1;HPM_P2
2022/12/26 00:00:48;;;;;;;2.35;1.10;;;12.80;99.90;;;12.93;100.00;100505.09;5205649;28;20050;-69
2022/12/26 00:03:21;;;;;;;1.38;1.05;;;12.90;99.90;;;12.95;100.00;100503.38;5205378;28;20042;-69
2022/12/26 00:08:33;;;;;;;1.27;1.00;;;12.90;99.90;;;12.92;100.00;100490.25;5189493;28;20057;-82
2022/12/26 00:11:09;;;;;;;1.45;1.10;;;12.90;99.90;;;12.93;100.00;100490.28;5176138;28;20057;-81
2022/12/26 00:13:44;;;;;;;2.03;1.15;;;12.80;99.90;;;12.93;100.00;100499.88;5188072;28;20053;-81
2022/12/26 00:16:22;;;;;;;4.63;1.25;;;12.80;99.90;;;12.91;100.00;100493.69;5187427;28;20115;-80
2022/12/26 00:18:59;;;;;;;1.40;0.73;;;12.80;99.90;;;12.88;100.00;100491.91;5204835;28;20132;-80
2022/12/26 00:21:32;;;;;;;1.65;1.00;;;12.80;99.90;;;12.89;100.00;100501.53;5188238;28;20068;-80
2022/12/26 00:24:06;;;;;;;2.10;0.98;;;12.80;99.90;;;12.88;100.00;100504.13;5205474;28;20144;-81
2022/12/26 00:26:40;;;;;;;1.08;0.90;;;12.80;99.90;;;12.90;100.00;100510.25;5205313;28;20045;-81
2022/12/26 00:29:13;;;;;;;1.42;1.00;;;12.80;99.90;;;12.89;100.00;100505.88;5185853;28;20058;-81
2022/12/26 00:31:48;;;;;;;1.35;1.00;;;12.80;99.90;;;12.89;100.00;100512.00;5187409;28;20386;-81
2022/12/26 00:34:24;;;;;;;2.13;1.13;;;12.80;99.90;;;12.90;100.00;100518.09;5170921;28;20052;-81
2022/12/26 00:36:56;;;;;;;2.00;1.02;;;12.80;99.90;;;12.87;100.00;100515.44;5185090;28;20129;-82
2022/12/26 00:39:31;;;;;;;1.55;1.13;;;12.80;99.90;;;12.87;100.00;100507.59;5159197;28;20046;-82
2022/12/26 00:42:04;;;;;;;1.23;0.88;;;12.80;99.90;;;12.86;100.00;100503.22;5167119;28;20662;-81
2022/12/26 00:44:37;;;;;;;1.52;1.23;;;12.80;99.90;;;12.86;100.00;100500.59;5169737;28;20049;-81
2022/12/26 00:47:10;;;;;;;1.45;0.93;;;12.80;99.90;;;12.84;100.00;100512.75;5150920;28;20053;-81
2022/12/26 00:49:44;;;;;;;1.50;0.93;;;12.80;99.90;;;12.83;100.00;100505.75;5183017;28;20048;-81
2022/12/26 00:52:19;;;;;;;1.67;1.23;;;12.70;99.90;;;12.84;100.00;100507.50;5184117;28;20056;-81
2022/12/26 00:54:53;;;;;;;2.05;1.00;;;12.70;99.90;;;12.82;100.00;100510.09;5169090;28;20051;-82
2022/12/26 00:57:27;;;;;;;0.90;0.90;;;12.80;99.90;;;12.82;100.00;100504.00;5176433;28;20422;-81
2022/12/26 01:00:00;;;;;;;1.58;1.15;;;12.70;99.90;;;12.83;100.00;100500.50;5186459;28;20041;-80
2022/12/26 01:02:39;;;;;;;2.03;1.25;;;12.70;99.90;;;12.84;100.00;100510.13;5194685;28;20056;-81
2022/12/26 01:05:18;;;;;;;1.35;1.20;;;12.70;99.90;;;12.82;100.00;100511.84;5159150;28;20053;-80
2022/12/26 01:07:51;;;;;;;1.20;1.10;;;12.70;99.90;;;12.79;100.00;100503.94;5177207;28;20401;-79
2022/12/26 01:10:25;;;;;;;1.60;1.17;;;12.70;99.90;;;12.76;100.00;100513.47;5173621;28;20037;-81
2022/12/26 01:12:58;;;;;;;1.75;1.15;;;12.70;99.90;;;12.75;100.00;100514.31;5166152;28;20046;-80
2022/12/26 01:15:31;;;;;;;1.88;1.00;;;12.70;99.90;;;12.71;100.00;100528.19;5150488;28;20529;-81
2022/12/26 01:18:05;;;;;;;1.98;0.82;;;12.70;99.90;;;12.70;100.00;100535.97;5149768;28;20045;-80
2022/12/26 01:20:40;;;;;;;2.40;1.05;;;12.60;99.90;;;12.69;100.00;100547.31;5165495;28;20563;-80
2022/12/26 01:23:12;;;;;;;1.10;1.00;;;12.60;99.90;;;12.67;100.00;100555.13;5183960;28;20049;-80
2022/12/26 01:25:46;;;;;;;1.33;1.00;;;12.60;99.90;;;12.65;100.00;100555.91;5183368;28;20413;-81
2022/12/26 01:28:18;;;;;;;1.83;1.10;;;12.60;99.90;;;12.62;100.00;100563.72;5138939;28;20103;-80
2022/12/26 01:30:51;;;;;;;1.20;0.80;;;12.60;99.90;;;12.59;100.00;100566.25;5144502;28;20069;-81
2022/12/26 01:33:27;;;;;;;1.55;1.00;;;12.60;99.90;;;12.53;100.00;100569.63;5163045;28;20053;-80
2022/12/26 01:36:02;;;;;;;1.30;0.90;;;12.50;99.90;;;12.47;100.00;100562.50;5145681;28;20065;-81
2022/12/26 01:38:34;;;;;;;1.55;0.90;;;12.50;99.90;;;12.42;100.00;100558.91;5145281;28;20089;-82
2022/12/26 01:41:22;;;;;;;0.80;0.70;;;12.40;99.90;;;12.38;100.00;100564.00;5145905;28;20081;-81
2022/12/26 01:43:59;;;;;;;1.80;1.05;;;12.30;99.90;;;12.32;100.00;100563.84;5163340;28;20047;-81
2022/12/26 01:46:39;;;;;;;1.40;1.13;;;12.30;99.90;;;12.28;100.00;100575.09;5163835;28;20054;-81
2022/12/26 01:49:24;;;;;;;1.15;0.80;;;12.20;99.90;;;12.23;100.00;100564.53;5145705;28;20057;-81
2022/12/26 01:52:03;;;;;;;0.77;0.73;;;12.20;99.90;;;12.17;100.00;100559.16;5146359;28;20505;-81
2022/12/26 01:54:39;;;;;;;1.15;0.75;;;12.10;99.90;;;12.12;100.00;100572.09;5162382;28;20430;-80
2022/12/26 01:57:19;;;;;;;1.15;0.80;;;12.10;99.90;;;12.09;100.00;100577.25;5163889;28;20125;-81
2022/12/26 01:59:54;;;;;;;0.90;0.73;;;12.00;99.90;;;12.07;100.00;100572.84;5129635;28;20078;-81
2022/12/26 02:02:29;;;;;;;1.20;0.93;;;12.00;99.90;;;12.06;100.00;100566.75;5146188;28;20510;-81
2022/12/26 02:07:55;;;;;;;1.00;0.85;;;12.00;99.90;;;12.08;100.00;100559.81;5149451;28;20077;-81
2022/12/26 02:10:28;;;;;;;1.17;0.90;;;12.00;99.90;;;12.13;100.00;100573.00;5150104;28;20068;-81
2022/12/26 02:13:06;;;;;;;1.27;1.00;;;12.10;99.90;;;12.15;100.00;100572.19;5166129;28;20089;-80
2022/12/26 02:15:41;;;;;;;1.10;0.88;;;12.10;99.90;;;12.19;100.00;100578.34;5123094;28;20064;-80
2022/12/26 02:18:13;;;;;;;2.22;1.00;;;12.10;99.90;;;12.22;100.00;100591.50;5147035;28;20050;-80
2022/12/26 02:21:01;;;;;;;0.90;0.82;;;12.10;99.90;;;12.24;100.00;100600.25;5149304;28;20050;-81
2022/12/26 02:24:14;;;;;;;0.85;0.82;;;12.20;99.90;;;12.27;100.00;100594.25;5153391;28;20066;-81
2022/12/26 02:27:14;;;;;;;2.10;1.00;;;12.20;99.90;;;12.28;100.00;100589.06;5154704;28;20053;-81
2022/12/26 02:30:24;;;;;;;1.60;0.98;;;12.20;99.90;;;12.28;100.00;100586.44;5165467;28;20057;-81
2022/12/26 02:33:48;;;;;;;1.77;1.00;;;12.20;99.90;;;12.29;100.00;100585.59;5166912;28;20064;-81
2022/12/26 02:36:50;;;;;;;0.90;0.75;;;12.20;99.90;;;12.28;100.00;100582.94;5165820;28;20053;-81
2022/12/26 02:39:45;;;;;;;0.88;0.63;;;12.20;99.90;;;12.27;100.00;100576.84;5165425;28;20837;-80
2022/12/26 02:42:34;;;;;;;1.45;0.80;;;12.30;99.90;;;12.27;100.00;100570.72;5149569;28;20450;-81
2022/12/26 02:48:17;;;;;;;0.93;0.70;;;12.20;99.90;;;12.25;100.00;100601.16;5151632;28;20121;-81
2022/12/26 03:14:36;;;;;;;1.45;0.95;;;12.30;99.90;;;12.38;100.00;100595.38;5151546;28;20048;-81
2022/12/26 03:17:22;;;;;;;2.22;1.02;;;12.40;99.90;;;12.39;100.00;100586.72;5132150;28;20069;-81
2022/12/26 03:20:00;;;;;;;1.83;1.00;;;12.30;99.90;;;12.38;100.00;100590.16;5164508;28;20053;-81
2022/12/26 03:22:41;;;;;;;1.48;1.10;;;12.40;99.90;;;12.39;100.00;100589.31;5164753;28;20046;-80
2022/12/26 03:28:12;;;;;;;1.60;1.20;;;12.30;99.90;;;12.39;100.00;100582.38;5165249;28;20046;-81
2022/12/26 03:30:50;;;;;;;1.70;1.00;;;12.30;99.90;;;12.39;100.00;100581.50;5147809;28;20152;-81
2022/12/26 03:36:29;;;;;;;2.15;1.20;;;12.30;99.90;;;12.36;100.00;100577.06;5151961;28;20422;-81
2022/12/26 03:39:13;;;;;;;1.27;0.95;;;12.30;99.90;;;12.36;100.00;100592.72;5144210;28;20043;-81
2022/12/26 04:20:52;;;;;;;1.02;0.70;;;12.20;99.90;;;12.27;100.00;100623.00;5130303;28;20367;-81
2022/12/26 04:44:04;;;;;;;0.73;0.73;;;12.20;99.90;;;12.22;100.00;100622.88;5127366;28;20054;-81
2022/12/26 04:46:43;;;;;;;0.80;0.80;;;12.20;99.90;;;12.20;100.00;100628.06;5129005;28;20047;-82
2022/12/26 04:52:14;;;;;;;0.80;0.60;;;12.10;99.90;;;12.20;100.00;100632.41;5129978;28;20420;-82
2022/12/26 04:54:47;;;;;;;0.60;0.60;;;12.10;99.90;;;12.20;100.00;100638.53;5142765;28;20109;-81
2022/12/26 04:57:21;;;;;;;1.10;0.93;;;12.10;99.90;;;12.21;100.00;100634.19;5111066;28;20132;-82
2022/12/26 04:59:55;;;;;;;1.63;1.10;;;12.10;99.90;;;12.20;100.00;100633.28;5142845;28;20054;-81
2022/12/26 05:11:14;;;;;;;0.75;0.63;;;12.10;99.90;;;12.18;100.00;100627.13;5144089;28;20117;-81
2022/12/26 05:13:51;;;;;;;0.70;0.68;;;12.10;99.90;;;12.18;100.00;100626.25;5111681;28;20137;-81
2022/12/26 05:31:12;;;;;;;1.98;0.68;;;12.10;99.90;;;12.16;100.00;100641.88;5121471;28;20051;-82
2022/12/26 05:36:38;;;;;;;0.60;0.57;;;12.10;99.90;;;12.11;100.00;100633.03;5126710;28;20459;-81
2022/12/26 05:39:13;;;;;;;1.20;0.70;;;12.00;99.90;;;12.08;100.00;100632.09;5126283;28;20055;-82
2022/12/26 05:41:47;;;;;;;0.82;0.63;;;12.00;99.90;;;12.03;100.00;100634.56;5146448;28;20053;-81
2022/12/26 05:44:19;;;;;;;0.73;0.70;;;12.00;99.90;;;11.99;100.00;100632.72;5114441;28;20105;-80
2022/12/26 05:46:52;;;;;;;0.50;0.50;;;11.90;99.90;;;11.92;100.00;100642.13;5147843;28;20074;-81
2022/12/26 05:49:24;;;;;;;0.60;0.60;;;11.90;99.90;;;11.89;100.00;100660.34;5114520;28;20526;-81
2022/12/26 05:51:57;;;;;;;1.10;0.73;;;11.90;99.90;;;11.83;100.00;100641.00;5130658;28;20043;-80
2022/12/26 05:54:31;;;;;;;1.02;0.90;;;11.80;99.90;;;11.78;100.00;100643.44;5130623;28;20051;-80
2022/12/26 05:57:04;;;;;;;2.75;0.88;;;11.80;99.90;;;11.75;100.00;100651.22;5098445;28;20047;-81
2022/12/26 05:59:37;;;;;;;1.10;0.68;;;11.70;99.90;;;11.71;100.00;100648.47;5146081;28;20101;-80
2022/12/26 06:02:12;;;;;;;1.08;0.80;;;11.70;99.90;;;11.68;100.00;100663.22;5147495;28;20051;-80
2022/12/26 06:04:44;;;;;;;1.30;0.93;;;11.70;99.90;;;11.66;100.00;100675.31;5130924;28;20062;-80
2022/12/26 06:07:16;;;;;;;1.23;1.13;;;11.70;99.90;;;11.61;100.00;100674.31;5161568;23;20245;-71
2022/12/26 06:10:05;;;;;;;1.92;1.45;;;11.60;99.90;;;11.56;100.00;100672.41;5177099;28;20057;-70
2022/12/26 06:12:37;;;;;;;2.15;1.48;;;11.60;99.90;;;11.51;100.00;100668.78;5173928;28;20092;-69
2022/12/26 06:15:11;;;;;;;2.08;1.73;;;11.60;99.90;;;11.47;100.00;100666.91;5187686;28;20046;-70
2022/12/26 06:17:43;;;;;;;2.58;1.63;;;11.50;99.90;;;11.45;100.00;100673.81;5167425;28;20050;-71
2022/12/26 06:20:15;;;;;;;2.65;1.60;;;11.40;99.90;;;11.45;100.00;100672.09;5167026;28;20550;-70
2022/12/26 06:22:47;;;;;;;2.97;1.63;;;11.50;99.90;;;11.45;100.00;100673.81;5167259;28;20054;-69
2022/12/26 06:25:21;;;;;;;1.85;1.38;;;11.50;99.90;;;11.46;100.00;100671.25;5167408;28;20048;-69
2022/12/26 06:27:53;;;;;;;1.88;1.23;;;11.50;99.90;;;11.48;100.00;100677.41;5166772;28;20061;-70
2022/12/26 06:30:25;;;;;;;1.40;1.20;;;11.50;99.90;;;11.50;100.00;100682.69;5149628;28;20053;-69
2022/12/26 06:32:58;;;;;;;1.58;1.10;;;11.50;99.90;;;11.50;100.00;100683.56;5167237;28;20035;-69
2022/12/26 06:35:30;;;;;;;1.10;1.00;;;11.50;99.90;;;11.49;100.00;100684.41;5167379;28;20054;-71
2022/12/26 06:38:02;;;;;;;1.45;0.90;;;11.50;99.90;;;11.49;100.00;100681.78;5167167;28;20046;-69
2022/12/26 06:40:39;;;;;;;1.25;0.90;;;11.50;99.90;;;11.50;100.00;100694.00;5167116;28;20038;-70
2022/12/26 06:43:11;;;;;;;0.95;0.90;;;11.50;99.90;;;11.49;100.00;100687.00;5167461;28;20049;-69
2022/12/26 06:45:43;;;;;;;1.08;0.73;;;11.50;99.90;;;11.48;100.00;100674.81;5167142;28;20054;-69
2022/12/26 06:48:15;;;;;;;1.05;0.68;;;11.50;99.90;;;11.49;100.00;100683.53;5164586;28;20050;-69
2022/12/26 06:50:47;;;;;;;0.70;0.70;;;11.40;99.90;;;11.47;100.00;100672.13;5161714;28;20055;-69
2022/12/26 06:53:20;;;;;;;0.60;0.60;;;11.40;99.90;;;11.47;100.00;100677.34;5146953;28;20051;-70
2022/12/26 06:55:53;;;;;;;0.80;0.80;;;11.50;99.90;;;11.47;100.00;100667.78;5146563;28;20496;-70
2022/12/26 06:58:25;;;;;;;1.55;0.80;;;11.50;99.90;;;11.47;100.00;100667.78;5146429;28;20053;-70
2022/12/26 07:01:05;;;;;;;0.60;0.60;;;11.40;99.90;;;11.46;100.00;100671.25;5145136;28;20500;-69
2022/12/26 07:03:38;;;;;;;0.88;0.88;;;11.50;99.90;;;11.46;100.00;100666.03;5146748;28;20043;-57
2022/12/26 07:06:18;;;;;;;1.23;0.60;;;11.40;99.90;;;11.46;100.00;100675.59;5146323;28;20415;-63
2022/12/26 07:08:51;;;;;;;0.65;0.65;;;11.40;99.90;;;11.48;100.00;100679.16;5145661;28;20054;-63
2022/12/26 07:11:28;;;;;;;0.60;0.60;;;11.50;99.90;;;11.48;100.00;100690.47;5145847;28;20087;-64
2022/12/26 07:14:01;;;;;;;1.35;0.57;;;11.50;99.90;;;11.48;100.00;100694.81;5144317;28;20113;-63
2022/12/26 07:16:35;;;;;;;0.60;0.52;;;11.40;99.90;;;11.47;100.00;100690.41;5146092;28;20050;-61
2022/12/26 07:19:09;;;;;;;0.40;0.32;;;11.40;99.90;;;11.47;100.00;100686.06;5145190;28;20047;-60
2022/12/26 07:21:42;;;;;;;0.32;0.32;;;11.40;99.90;;;11.47;100.00;100695.63;5145929;28;20514;-62
2022/12/26 07:24:16;;;;;;;0.30;0.30;;;11.40;99.90;;;11.46;100.00;100697.34;5145347;28;20050;-63
2022/12/26 07:26:50;;;;;;;0.70;0.45;;;11.40;99.90;;;11.46;100.00;100709.53;5145626;28;20050;-62
2022/12/26 07:29:22;;;;;;;0.52;0.52;;;11.40;99.90;;;11.44;100.00;100714.69;5145122;28;20050;-60
2022/12/26 07:31:55;;;;;;;0.22;0.22;;;11.40;99.90;;;11.43;100.00;100723.38;5145364;28;20051;-63
2022/12/26 07:34:27;;;;;;;0.30;0.30;;;11.40;99.90;;;11.40;100.00;100723.25;5145309;28;20194;-61
2022/12/26 07:37:00;;;;;;;0.52;0.50;;;11.30;99.90;;;11.37;100.00;100728.41;5145336;28;20047;-61
2022/12/26 07:39:32;;;;;;;0.43;0.43;;;11.30;99.90;;;11.35;100.00;100732.72;5144706;28;20049;-62
2022/12/26 07:42:06;;;;;;;0.40;0.40;;;11.30;99.90;;;11.33;100.00;100726.53;5145061;28;20049;-60
2022/12/26 07:44:40;;;;;;;0.40;0.40;;;11.30;99.90;;;11.31;100.00;100736.94;5145402;28;20133;-58
2022/12/26 07:47:13;;;;;;;0.50;0.50;;;11.30;99.90;;;11.30;100.00;100732.56;5144943;28;20492;-59
2022/12/26 07:49:46;;;;;;;0.93;0.68;;;11.30;99.90;;;11.28;100.00;100738.53;5144479;28;20049;-62
2022/12/26 07:52:18;;;;;;;0.63;0.60;;;11.20;99.90;;;11.26;100.00;100740.22;5144997;28;20051;-59
2022/12/26 07:54:50;;;;;;;1.33;0.65;;;11.20;99.90;;;11.25;100.00;100744.56;5145260;28;20550;-61
2022/12/26 07:57:24;;;;;;;0.32;0.32;;;11.20;99.90;;;11.24;100.00;100741.91;5144612;28;20043;-64
2022/12/26 07:59:56;;;;;;;0.43;0.43;;;11.10;99.90;;;11.22;100.00;100754.03;5145070;28;20039;-61
2022/12/26 08:02:28;;;;;;;0.40;0.40;;;11.20;99.90;;;11.20;100.00;100750.47;5143599;28;20051;-62
2022/12/26 08:05:01;;;;;;;0.80;0.52;;;11.20;99.90;;;11.19;100.00;100766.97;5144754;28;20070;-65
2022/12/26 08:07:33;;;;;;;0.35;0.35;;;11.10;99.90;;;11.17;100.00;100772.16;5144480;28;20047;-63
2022/12/26 08:10:06;;;;;;;0.43;0.43;;;11.10;99.90;;;11.17;100.00;100776.47;5144491;28;20042;-62
2022/12/26 08:12:39;;;;;;;0.55;0.50;;;11.10;99.90;;;11.17;100.00;100766.03;5144920;28;20043;-61
2022/12/26 08:15:13;;;;;;;0.55;0.40;;;11.10;99.90;;;11.18;100.00;100767.81;5145025;28;20062;-62
2022/12/26 08:17:45;;;;;;;1.15;0.73;;;11.10;99.90;;;11.18;100.00;100765.19;5144713;28;20051;-63
2022/12/26 08:20:17;;;;;;;0.75;0.75;;;11.10;99.90;;;11.19;100.00;100759.16;5162774;28;20701;-61
2022/12/26 08:22:49;;;;;;;1.25;0.88;;;11.10;99.90;;;11.22;100.00;100769.69;5156533;28;20038;-64
2022/12/26 08:25:21;;;;;;;1.15;0.88;;;11.20;99.90;;;11.24;100.00;100783.66;5164453;28;20068;-65
2022/12/26 08:27:55;;;;;;;1.10;0.70;;;11.20;99.90;;;11.25;100.00;100770.66;5164303;28;20529;-62
2022/12/26 08:30:29;;;;;;;2.88;1.55;;;11.20;99.90;;;11.23;100.00;100761.03;5164769;28;20069;-61
2022/12/26 08:33:02;;;;;;;2.60;1.50;;;11.20;99.90;;;11.23;100.00;100758.41;5147465;28;20050;-62
2022/12/26 08:35:35;;;;;;;3.55;1.90;;;11.20;99.90;;;11.22;100.00;100772.31;5164871;28;20121;-62
2022/12/26 08:38:09;;;;;;;3.38;1.83;;;11.20;99.90;;;11.24;100.00;100768.91;5146768;28;20053;-62
2022/12/26 08:40:42;;;;;;;2.67;1.38;;;11.20;99.90;;;11.25;100.00;100769.78;5164401;28;20045;-62
2022/12/26 08:43:16;;;;;;;2.40;1.38;;;11.20;99.90;;;11.26;100.00;100761.09;5164448;28;20161;-62
2022/12/26 08:45:56;;;;;;;2.13;1.45;;;11.30;99.90;;;11.25;100.00;100769.78;5164286;28;20732;-62
2022/12/26 08:48:29;;;;;;;1.35;1.13;;;11.30;99.90;;;11.26;100.00;100777.66;5163754;28;20074;-61
2022/12/26 08:51:04;;;;;;;2.63;1.63;;;11.30;99.90;;;11.24;100.00;100770.63;5163820;28;20572;-62
2022/12/26 08:53:37;;;;;;;2.17;1.45;;;11.30;99.90;;;11.25;100.00;100780.22;5163630;28;20046;-63
2022/12/26 08:56:14;;;;;;;6.65;3.83;;;11.30;99.90;;;11.27;100.00;100778.53;5164261;28;20452;-62
2022/12/26 08:58:48;;;;;;;3.70;2.10;;;11.30;99.90;;;11.31;100.00;100775.19;5149952;28;20516;-62
2022/12/26 09:01:22;;;;;;;3.47;1.90;;;11.30;99.90;;;11.35;100.00;100784.91;5143224;28;20173;-61
2022/12/26 09:03:56;;;;;;;2.70;1.58;;;11.30;99.90;;;11.38;100.00;100784.97;5143523;28;20054;-62
2022/12/26 09:06:29;;;;;;;2.60;1.75;;;11.30;99.90;;;11.39;100.00;100784.13;5143025;28;20043;-62
2022/12/26 09:09:02;;;;;;;2.05;1.50;;;11.40;99.90;;;11.43;100.00;100793.84;5142891;28;20047;-65
2022/12/26 09:11:34;;;;;;;1.98;1.33;;;11.40;99.90;;;11.48;100.00;100805.31;5143127;28;20071;-62
2022/12/26 09:14:08;;;;;;;1.45;1.23;;;11.40;99.90;;;11.52;100.00;100804.56;5143176;28;20046;-62
2022/12/26 09:16:45;;;;;;;1.35;1.10;;;11.50;99.90;;;11.57;100.00;100813.44;5142269;28;20034;-63
2022/12/26 09:19:18;;;;;;;2.10;1.33;;;11.50;99.90;;;11.61;100.00;100812.69;5143125;28;20550;-61
2022/12/26 09:22:49;;;;;;;2.38;1.50;;;11.50;99.90;;;12.04;100.00;100813.13;5143176;28;20046;-62
2022/12/26 09:24:44;;;;;;;2.78;1.52;;;12.00;99.90;;;12.76;100.00;100811.63;5143042;28;20262;-61
2022/12/26 09:27:17;;;;;;;1.73;1.23;;;12.80;99.90;;;13.24;100.00;100819.00;5142864;28;20050;-61
2022/12/26 09:29:50;;;;;;;2.85;1.20;;;13.40;99.90;;;13.65;100.00;100824.31;5149942;28;20042;-62
2022/12/26 09:32:22;;;;;;;1.20;0.75;;;13.90;99.90;;;13.99;100.00;100825.94;5162571;28;20061;-62
2022/12/26 09:34:54;;;;;;;2.10;0.95;;;14.30;99.90;;;14.29;100.00;100837.94;5162933;28;20050;-58
2022/12/26 09:37:27;;;;;;;2.42;0.88;;;14.60;99.90;;;14.18;100.00;100837.72;5161399;28;20495;-62
2022/12/26 09:39:59;;;;;;;2.08;0.90;;;14.50;99.90;;;13.80;100.00;100842.13;5160963;28;20126;-62
2022/12/26 09:42:41;;;;;;;2.35;0.90;;;14.10;99.90;;;13.50;100.00;100852.78;5163037;28;20042;-60
2022/12/26 09:45:18;;;;;;;2.88;0.90;;;13.80;99.90;;;13.24;100.00;100855.66;5162698;28;20495;-58
2022/12/26 09:48:05;;;;;;;1.50;1.10;;;13.50;99.90;;;13.05;100.00;100858.63;5162790;28;20046;-57
2022/12/26 09:50:39;;;;;;;2.72;1.00;;;13.20;99.90;;;12.88;100.00;100855.56;5162509;28;20042;-59
2022/12/26 09:53:16;;;;;;;1.33;1.00;;;13.00;99.90;;;12.75;100.00;100863.91;5163281;28;20519;-61
2022/12/26 09:55:54;;;;;;;1.65;1.02;;;12.90;99.90;;;12.67;100.00;100868.94;5163475;28;20042;-59
2022/12/26 09:58:30;;;;;;;2.58;0.85;;;12.70;99.90;;;12.63;100.00;100864.47;5163010;28;20069;-58
2022/12/26 10:01:10;;;;;;;2.97;1.02;;;12.70;99.90;;;12.62;100.00;100860.09;5163500;28;20046;-59
2022/12/26 10:03:46;;;;;;;1.25;0.88;;;12.60;99.90;;;12.60;100.00;100864.41;5163371;28;20050;-59
2022/12/26 10:06:20;;;;;;;2.58;1.40;;;12.60;99.90;;;12.59;100.00;100857.41;5160932;28;20050;-62
2022/12/26 10:09:11;;;;;;;1.20;0.73;;;12.50;99.90;;;12.75;100.00;100872.66;5161913;28;20065;-63
2022/12/26 10:12:00;;;;;;;2.55;1.08;;;12.70;99.90;;;12.73;100.00;100871.72;5162519;28;20046;-57
2022/12/26 10:14:41;;;;;;;1.73;0.90;;;12.70;99.90;;;12.71;100.00;100880.38;5162719;28;20503;-58
2022/12/26 10:17:25;;;;;;;2.50;1.10;;;12.60;99.90;;;12.76;100.00;100874.41;5162736;28;20057;-56
2022/12/26 10:20:18;;;;;;;1.08;0.90;;;12.70;99.90;;;12.73;100.00;100870.84;5162270;28;20047;-59
2022/12/26 10:23:25;;;;;;;1.67;0.73;;;12.70;99.90;;;12.67;100.00;100865.44;5162408;28;20046;-61
2022/12/26 10:26:06;;;;;;;1.45;0.80;;;12.60;99.90;;;12.65;100.00;100862.81;5154963;28;20518;-59
2022/12/26 10:28:44;;;;;;;1.40;0.75;;;12.60;99.90;;;12.65;100.00;100856.66;5156521;28;20534;-59
2022/12/26 10:31:22;;;;;;;1.00;0.63;;;12.60;99.90;;;12.69;100.00;100853.28;5164289;28;20066;-61
2022/12/26 10:34:06;;;;;;;0.93;0.73;;;12.60;99.90;;;12.75;100.00;100858.69;5165825;28;20046;-57
2022/12/26 10:36:44;;;;;;;1.00;0.88;;;12.60;99.90;;;12.80;100.00;100864.06;5165888;28;20046;-61
2022/12/26 10:39:23;;;;;;;4.35;0.90;;;12.70;99.90;;;13.14;100.00;100866.69;5165490;28;20084;-58
2022/12/26 10:42:00;;;;;;;1.70;0.90;;;13.00;99.90;;;13.26;100.00;100874.91;5165378;28;20038;-58
2022/12/26 10:44:33;;;;;;;0.93;0.80;;;13.20;99.90;;;13.23;100.00;100873.91;5165291;28;20121;-60
2022/12/26 10:47:25;;;;;;;1.58;1.00;;;13.20;99.90;;;13.17;100.00;100874.66;5165750;28;20038;-57
2022/12/26 10:49:58;;;;;;;0.93;0.70;;;13.10;99.90;;;13.10;100.00;100883.16;5162173;28;20077;-58
2022/12/26 10:52:35;;;;;;;1.25;0.55;;;13.10;99.90;;;13.03;100.00;100883.84;5163518;28;20038;-58
2022/12/26 10:55:15;;;;;;;1.55;0.60;;;13.00;99.90;;;12.98;100.00;100872.41;5164972;28;20429;-57
2022/12/26 10:57:50;;;;;;;0.93;0.43;;;12.90;99.90;;;12.92;100.00;100867.88;5164170;28;20476;-59
2022/12/26 11:00:26;;;;;;;0.73;0.68;;;12.80;99.90;;;12.91;100.00;100870.44;5165186;28;20050;-60
2022/12/26 11:03:07;;;;;;;0.50;0.50;;;12.80;99.90;;;12.86;100.00;100867.72;5165068;28;20444;-62
2022/12/26 11:05:44;;;;;;;0.75;0.70;;;12.70;99.90;;;12.82;100.00;100862.34;5162313;28;20554;-55
2022/12/26 11:08:21;;;;;;;1.02;0.50;;;12.70;99.90;;;12.79;100.00;100870.13;5163799;28;20124;-59
2022/12/26 11:11:04;;;;;;;0.95;0.60;;;12.70;99.90;;;12.74;100.00;100876.13;5164514;28;20050;-57
2022/12/26 11:13:42;;;;;;;0.52;0.52;;;12.60;99.90;;;12.72;100.00;100869.97;5164359;28;20042;-59
2022/12/26 11:16:26;;;;;;;0.63;0.40;;;12.60;99.90;;;12.72;100.00;100874.31;5164239;28;20380;-58
2022/12/26 11:18:59;;;;;;;0.50;0.50;;;12.60;99.90;;;12.72;100.00;100874.31;5164056;28;20376;-56
2022/12/26 11:21:33;;;;;;;0.95;0.43;;;12.60;99.90;;;12.73;100.00;100871.72;5163266;28;20489;-63
2022/12/26 11:24:19;;;;;;;1.55;0.40;;;12.60;99.90;;;12.72;100.00;100869.97;5164945;28;20050;-59
2022/12/26 11:26:51;;;;;;;1.55;0.50;;;12.60;99.90;;;12.72;100.00;100875.19;5165435;28;20042;-62
2022/12/26 11:29:23;;;;;;;0.85;0.50;;;12.60;99.90;;;12.72;100.00;100876.94;5146396;28;20047;-57
2022/12/26 11:31:59;;;;;;;0.77;0.60;;;12.60;99.90;;;12.73;100.00;100873.47;5163583;28;20393;-61
2022/12/26 11:34:44;;;;;;;0.63;0.50;;;12.60;99.90;;;12.76;100.00;100871.81;5164182;28;20069;-58
2022/12/26 11:37:27;;;;;;;1.13;0.60;;;12.70;99.90;;;12.80;100.00;100866.66;5162047;28;20129;-60
2022/12/26 11:40:00;;;;;;;0.70;0.47;;;12.70;99.90;;;12.80;100.00;100858.81;5164235;28;20042;-57
2022/12/26 11:42:32;;;;;;;0.85;0.52;;;12.70;99.90;;;12.80;100.00;100858.81;5165647;28;20042;-62
2022/12/26 11:45:12;;;;;;;0.45;0.45;;;12.70;99.90;;;12.81;100.00;100855.34;5162858;28;20517;-60
2022/12/26 11:47:45;;;;;;;0.50;0.50;;;12.70;99.90;;;12.84;100.00;100868.50;5164412;28;20049;-56
2022/12/26 11:50:20;;;;;;;1.02;0.38;;;12.80;99.90;;;12.85;100.00;100867.69;5179163;28;20124;-59
2022/12/26 11:53:06;;;;;;;0.95;0.50;;;12.70;99.90;;;12.90;100.00;100871.28;5183129;28;20068;-60
2022/12/26 11:55:39;;;;;;;0.88;0.68;;;12.80;99.90;;;12.95;100.00;100873.19;5184365;28;20120;-56
2022/12/26 11:58:20;;;;;;;1.40;0.55;;;12.80;99.90;;;12.98;100.00;100869.78;5183646;28;20414;-56
2022/12/26 12:01:13;;;;;;;0.82;0.50;;;12.80;99.90;;;12.97;100.00;100881.06;5184520;28;20796;-55
2022/12/26 12:03:47;;;;;;;1.83;0.60;;;12.80;99.90;;;12.98;100.00;100877.63;5184517;28;20048;-57
2022/12/26 12:06:46;;;;;;;1.08;0.50;;;12.90;99.90;;;12.97;100.00;100883.69;5184018;28;20054;-58
2022/12/26 12:09:31;;;;;;;0.65;0.52;;;12.80;99.90;;;12.95;100.00;100874.91;5183673;28;20503;-61
2022/12/26 12:12:14;;;;;;;0.95;0.50;;;12.90;99.90;;;12.91;100.00;100868.72;5164128;28;20395;-58
2022/12/26 12:15:00;;;;;;;0.60;0.40;;;12.80;99.90;;;12.88;100.00;100872.97;5164050;28;20046;-59
2022/12/26 12:17:44;;;;;;;1.48;0.43;;;12.80;99.90;;;12.85;100.00;100870.31;5163394;28;20047;-60
2022/12/26 12:20:30;;;;;;;1.27;0.50;;;12.70;99.90;;;12.80;100.00;100875.41;5157039;28;20574;-58
2022/12/26 12:23:33;;;;;;;0.55;0.50;;;12.70;99.90;;;12.77;100.00;100872.69;5165358;28;20042;-58
2022/12/26 12:26:12;;;;;;;0.95;0.57;;;12.70;99.90;;;12.79;100.00;100870.13;5146248;28;20525;-59
2022/12/26 12:29:20;;;;;;;2.47;1.13;;;12.70;99.90;;;12.81;100.00;100871.06;5163294;28;20513;-57
2022/12/26 12:32:08;;;;;;;0.93;0.52;;;12.70;99.90;;;12.81;100.00;100863.19;5158733;28;20061;-56
2022/12/26 12:35:15;;;;;;;1.67;0.70;;;12.70;99.90;;;12.84;100.00;100853.69;5163345;28;20625;-57
2022/12/26 12:38:13;;;;;;;2.97;0.90;;;12.70;99.90;;;12.89;100.00;100854.69;5163037;28;20065;-59
2022/12/26 12:41:01;;;;;;;2.55;0.90;;;12.80;99.90;;;12.94;100.00;100857.44;5163297;28;20430;-60
2022/12/26 12:43:44;;;;;;;1.10;0.80;;;12.80;99.90;;;12.94;100.00;100849.59;5163552;28;20076;-59
2022/12/26 12:46:27;;;;;;;1.38;0.90;;;12.80;99.90;;;12.91;100.00;100854.72;5153821;28;20042;-58
2022/12/26 12:49:25;;;;;;;0.98;0.82;;;12.80;99.90;;;12.88;100.00;100854.66;5162057;28;20050;-64
2022/12/26 12:52:13;;;;;;;1.75;0.80;;;12.80;99.90;;;12.85;100.00;100859.84;5162728;28;20051;-61
2022/12/26 12:54:59;;;;;;;;;;;12.80;99.90;;;12.80;100.00;100853.59;5145575;28;20504;-58